createdAt,value
2018-11-02T00:00:43.690Z,8.10
2018-11-02T00:05:46.825Z,8.10
2018-11-02T00:10:49.894Z,8.10
2018-11-02T00:15:53.045Z,8.10
2018-11-02T00:20:56.149Z,8.00
2018-11-02T00:25:59.281Z,8.00
2018-11-02T00:31:02.538Z,8.00
2018-11-02T00:36:05.815Z,7.90
2018-11-02T00:41:08.898Z,7.90
2018-11-02T00:46:12.042Z,7.90
2018-11-02T00:51:15.190Z,7.90
2018-11-02T00:56:18.281Z,7.80
2018-11-02T01:01:21.365Z,7.80
2018-11-02T01:06:24.514Z,7.80
2018-11-02T01:11:27.602Z,7.70
2018-11-02T01:16:30.730Z,7.70
2018-11-02T01:21:33.779Z,7.70
2018-11-02T01:26:36.861Z,7.70
2018-11-02T01:31:40.002Z,7.70
2018-11-02T01:36:43.093Z,7.60
2018-11-02T01:41:46.221Z,7.60
2018-11-02T01:46:49.305Z,7.50
2018-11-02T01:51:52.397Z,7.50
2018-11-02T01:56:55.480Z,7.50
2018-11-02T02:01:58.600Z,7.40
2018-11-02T02:07:01.719Z,7.40
2018-11-02T02:12:04.852Z,7.30
2018-11-02T02:17:07.925Z,7.30
2018-11-02T02:22:11.823Z,7.20
2018-11-02T02:27:14.897Z,7.20
2018-11-02T02:32:17.995Z,7.10
2018-11-02T02:37:21.097Z,7.10
2018-11-02T02:42:24.331Z,7.10
2018-11-02T02:47:27.442Z,7.10
2018-11-02T02:52:30.513Z,7.10
2018-11-02T02:57:33.574Z,7.00
2018-11-02T03:02:54.962Z,7.00
2018-11-02T03:07:58.010Z,7.00
2018-11-02T03:13:01.088Z,7.00
2018-11-02T03:18:04.165Z,6.90
2018-11-02T03:23:07.253Z,6.90
2018-11-02T03:28:10.326Z,6.90
2018-11-02T03:33:13.399Z,6.90
2018-11-02T03:38:16.457Z,6.90
2018-11-02T03:43:19.629Z,6.90
2018-11-02T03:48:22.705Z,6.90
2018-11-02T03:53:25.857Z,6.90
2018-11-02T03:58:28.938Z,6.90
2018-11-02T04:03:32.002Z,6.90
2018-11-02T04:08:39.892Z,6.90
2018-11-02T04:13:43.341Z,6.90
2018-11-02T04:18:46.405Z,6.90
2018-11-02T04:23:49.493Z,6.90
2018-11-02T04:28:52.581Z,6.80
2018-11-02T04:33:55.680Z,6.80
2018-11-02T04:38:58.774Z,6.80
2018-11-02T04:44:01.848Z,6.90
2018-11-02T04:49:05.386Z,6.90
2018-11-02T04:54:08.457Z,6.90
2018-11-02T04:59:11.525Z,6.80
2018-11-02T05:04:14.605Z,6.80
2018-11-02T05:09:21.495Z,6.80
2018-11-02T05:14:24.582Z,6.80
2018-11-02T05:19:27.656Z,6.80
2018-11-02T05:24:38.134Z,6.80
2018-11-02T05:29:41.238Z,6.80
2018-11-02T05:34:44.333Z,6.80
2018-11-02T05:39:53.590Z,6.80
2018-11-02T05:45:02.466Z,6.80
2018-11-02T05:50:06.697Z,6.70
2018-11-02T05:55:10.298Z,6.60
2018-11-02T06:00:13.609Z,6.60
2018-11-02T06:05:16.851Z,6.50
2018-11-02T06:10:19.939Z,6.50
2018-11-02T06:15:23.037Z,6.40
2018-11-02T06:20:26.173Z,6.40
2018-11-02T06:25:35.828Z,6.40
2018-11-02T06:30:39.024Z,6.30
2018-11-02T06:35:42.046Z,6.30
2018-11-02T06:40:49.953Z,6.30
2018-11-02T06:45:53.073Z,6.30
2018-11-02T06:50:56.262Z,6.40
2018-11-02T06:55:59.335Z,6.50
2018-11-02T07:01:02.441Z,6.50
2018-11-02T07:06:05.619Z,6.60
2018-11-02T07:11:08.777Z,6.60
2018-11-02T07:16:11.900Z,6.80
2018-11-02T07:21:18.673Z,6.80
2018-11-02T07:26:21.755Z,6.90
2018-11-02T07:31:24.856Z,7.10
2018-11-02T07:36:27.972Z,7.20
2018-11-02T07:41:31.036Z,7.30
2018-11-02T07:46:34.130Z,7.50
2018-11-02T07:51:37.197Z,7.60
2018-11-02T07:56:45.858Z,7.80
2018-11-02T08:01:49.184Z,8.00
2018-11-02T08:06:52.253Z,8.20
2018-11-02T08:11:55.343Z,9.60
2018-11-02T08:22:01.339Z,13.10
2018-11-02T08:27:04.443Z,17.10
2018-11-02T08:32:07.611Z,16.50
2018-11-02T08:37:15.113Z,17.40
2018-11-02T08:42:18.189Z,15.60
2018-11-02T08:47:21.233Z,14.60
2018-11-02T08:52:24.380Z,13.90
2018-11-02T08:57:27.390Z,13.70
2018-11-02T09:02:30.636Z,13.40
2018-11-02T09:07:33.724Z,13.60
2018-11-02T09:12:36.838Z,13.70
2018-11-02T09:17:44.894Z,13.60
2018-11-02T09:22:47.950Z,13.80
2018-11-02T09:27:51.046Z,13.30
2018-11-02T09:32:54.106Z,13.00
2018-11-02T09:43:00.071Z,12.90
2018-11-02T09:48:03.137Z,12.80
2018-11-02T09:53:06.213Z,12.80
2018-11-02T09:58:09.281Z,12.80
2018-11-02T10:03:12.366Z,13.00
2018-11-02T10:08:15.468Z,12.90
2018-11-02T10:13:18.516Z,12.90
2018-11-02T10:18:21.600Z,13.00
2018-11-02T10:23:24.852Z,12.90
2018-11-02T10:28:27.927Z,13.10
2018-11-02T10:38:33.887Z,13.20
2018-11-02T10:43:36.960Z,13.30
2018-11-02T10:48:40.022Z,13.20
2018-11-02T10:53:43.089Z,13.10
2018-11-02T10:58:46.148Z,13.10
2018-11-02T11:03:49.208Z,13.00
2018-11-02T11:08:58.736Z,13.00
2018-11-02T11:14:01.816Z,13.10
2018-11-02T11:19:10.490Z,13.10
2018-11-02T11:24:13.553Z,13.20
2018-11-02T11:29:16.618Z,13.20
2018-11-02T11:34:19.692Z,13.30
2018-11-02T11:39:22.778Z,13.30
2018-11-02T11:44:25.866Z,13.40
2018-11-02T11:49:35.402Z,13.50
2018-11-02T11:54:38.721Z,13.60
2018-11-02T11:59:41.788Z,14.00
2018-11-02T12:04:44.886Z,14.50
2018-11-02T12:09:47.978Z,14.70
2018-11-02T12:14:51.053Z,14.60
2018-11-02T12:19:54.177Z,14.40
2018-11-02T12:24:57.445Z,14.20
2018-11-02T12:30:00.537Z,14.00
2018-11-02T12:40:32.312Z,13.80
2018-11-02T12:45:36.486Z,14.00
2018-11-02T12:50:39.593Z,13.90
2018-11-02T12:55:48.525Z,13.90
2018-11-02T13:00:51.605Z,14.00
2018-11-02T13:05:54.762Z,14.40
2018-11-02T13:10:57.858Z,14.40
2018-11-02T13:16:01.003Z,14.30
2018-11-02T13:21:04.129Z,14.20
2018-11-02T13:26:07.530Z,14.20
2018-11-02T13:31:10.542Z,14.20
2018-11-02T13:36:13.619Z,14.10
2018-11-02T13:41:16.849Z,14.00
2018-11-02T13:46:24.023Z,14.00
2018-11-02T13:51:27.157Z,14.00
2018-11-02T13:56:37.473Z,14.00
2018-11-02T14:01:40.641Z,14.00
2018-11-02T14:06:43.915Z,13.90
2018-11-02T14:11:47.274Z,13.90
2018-11-02T14:16:50.193Z,13.80
2018-11-02T14:21:53.414Z,13.80
2018-11-02T14:26:56.580Z,13.70
2018-11-02T14:31:59.685Z,13.70
2018-11-02T14:37:02.847Z,13.60
2018-11-02T14:42:05.953Z,13.60
2018-11-02T14:47:09.047Z,13.60
2018-11-02T14:52:12.153Z,13.50
2018-11-02T14:57:15.250Z,13.50
2018-11-02T15:02:18.347Z,13.40
2018-11-02T15:07:21.606Z,13.40
2018-11-02T15:12:24.689Z,13.40
2018-11-02T15:17:27.772Z,13.30
2018-11-02T15:22:32.138Z,13.30
2018-11-02T15:27:35.246Z,13.20
2018-11-02T15:32:38.592Z,13.20
2018-11-02T15:37:42.288Z,13.10
2018-11-02T15:42:45.371Z,13.00
2018-11-02T15:47:48.474Z,13.00
2018-11-02T15:52:51.550Z,12.90
2018-11-02T15:57:54.617Z,12.80
2018-11-02T16:03:01.201Z,12.70
2018-11-02T16:08:04.417Z,12.50
2018-11-02T16:13:07.506Z,12.40
2018-11-02T16:18:10.600Z,12.30
2018-11-02T16:23:13.675Z,12.30
2018-11-02T16:28:16.756Z,12.20
2018-11-02T16:33:19.829Z,12.10
2018-11-02T16:38:22.914Z,12.00
2018-11-02T16:43:26.026Z,11.90
2018-11-02T16:48:29.105Z,11.80
2018-11-02T16:53:32.194Z,11.70
2018-11-02T16:58:41.239Z,11.60
2018-11-02T17:03:44.368Z,11.50
2018-11-02T17:08:47.457Z,11.30
2018-11-02T17:13:50.541Z,11.20
2018-11-02T17:18:54.154Z,11.00
2018-11-02T17:23:57.216Z,11.00
2018-11-02T17:29:00.456Z,10.90
2018-11-02T17:34:03.561Z,10.80
2018-11-02T17:39:08.826Z,10.80
2018-11-02T17:44:11.917Z,10.70
2018-11-02T17:54:18.555Z,10.60
2018-11-02T17:59:21.678Z,10.50
2018-11-02T18:04:24.745Z,10.50
2018-11-02T18:09:27.834Z,10.40
2018-11-02T18:14:33.144Z,10.30
2018-11-02T18:19:36.509Z,10.20
2018-11-02T18:24:39.791Z,10.10
2018-11-02T18:29:44.083Z,10.00
2018-11-02T18:35:01.923Z,9.90
2018-11-02T18:40:13.554Z,9.90
2018-11-02T18:51:03.985Z,9.60
2018-11-02T18:56:08.793Z,9.50
2018-11-02T19:01:12.582Z,9.40
2018-11-02T19:06:16.189Z,9.30
2018-11-02T19:11:19.553Z,9.20
2018-11-02T19:16:22.734Z,9.20
2018-11-02T19:21:26.542Z,9.10
2018-11-02T19:26:29.906Z,9.10
2018-11-02T19:31:33.253Z,9.00
2018-11-02T19:36:36.902Z,8.90
2018-11-02T19:41:40.053Z,8.90
2018-11-02T19:46:47.140Z,8.80
2018-11-02T19:51:50.654Z,8.80
2018-11-02T19:56:54.314Z,8.70
2018-11-02T20:02:17.287Z,8.60
2018-11-02T20:07:21.165Z,8.50
2018-11-02T20:12:24.988Z,8.40
2018-11-02T20:17:41.021Z,8.30
2018-11-02T20:22:44.664Z,8.20
2018-11-02T20:27:48.053Z,8.10
2018-11-02T20:32:52.634Z,8.10
2018-11-02T20:37:55.756Z,8.00
2018-11-02T20:42:58.957Z,8.00
2018-11-02T20:48:02.263Z,8.00
2018-11-02T20:53:05.484Z,8.00
2018-11-02T20:58:08.605Z,8.00
2018-11-02T21:03:11.669Z,8.00
2018-11-02T21:08:22.033Z,7.90
2018-11-02T21:13:25.032Z,7.90
2018-11-02T21:18:28.305Z,7.80
2018-11-02T21:23:36.602Z,7.80
2018-11-02T21:28:39.696Z,7.80
2018-11-02T21:33:42.825Z,7.70
2018-11-02T21:38:45.931Z,7.70
2018-11-02T21:43:49.123Z,7.60
2018-11-02T21:48:52.206Z,7.60
2018-11-02T21:53:55.296Z,7.60
2018-11-02T21:58:58.392Z,7.60
2018-11-02T22:04:01.452Z,7.50
2018-11-02T22:09:07.432Z,7.50
2018-11-02T22:14:10.529Z,7.50
2018-11-02T22:19:13.767Z,7.50
2018-11-02T22:24:16.772Z,7.40
2018-11-02T22:29:33.652Z,7.40
2018-11-02T22:34:36.733Z,7.40
2018-11-02T22:39:39.822Z,7.30
2018-11-02T22:44:42.896Z,7.20
2018-11-02T22:49:45.998Z,7.20
2018-11-02T22:54:49.086Z,7.10
2018-11-02T22:59:52.289Z,7.10
2018-11-02T23:04:55.368Z,7.10
2018-11-02T23:09:58.548Z,7.10
2018-11-02T23:15:01.655Z,7.10
2018-11-02T23:20:06.085Z,7.10
2018-11-02T23:25:09.886Z,7.10
2018-11-02T23:30:13.106Z,7.00
2018-11-02T23:35:16.077Z,7.00
2018-11-02T23:40:19.180Z,7.00
2018-11-02T23:45:22.339Z,7.00
2018-11-02T23:50:25.416Z,7.00
2018-11-02T23:55:28.509Z,6.90
